Time,TemperatureF,DewpointF,PressureIn,WindDirection,WindDirectionDegrees,WindSpeedMPH,WindSpeedGustMPH,Humidity,HourlyPrecipIn,Conditions,Clouds,dailyrainin,SolarRadiationWatts/m^2,SoftwareType,DateUTC
2013-02-27 00:21:00,7.0,2.0,-100.00,SW,219,1.0,4.0,80,0.00,,,0.00,0.000000,,2013-02-27 09:21:00,
2013-02-27 01:21:00,3.0,-1.0,-100.00,East,88,0.0,4.0,83,-99.99,,,0.00,0.000000,,2013-02-27 10:21:00,
2013-02-27 02:22:00,-1.0,-5.0,-100.00,SW,215,1.0,4.0,81,-99.99,,,-99.99,0.000000,,2013-02-27 11:22:00,
2013-02-27 03:22:00,-2.0,-6.0,-100.00,South,191,2.0,4.0,81,-99.99,,,0.00,0.000000,,2013-02-27 12:22:00,
2013-02-27 04:22:00,-5.0,-10.0,-100.00,WNW,291,0.0,3.0,80,-99.99,,,-99.99,0.000000,,2013-02-27 13:22:00,
2013-02-27 05:21:00,-6.0,-11.0,-100.00,SSW,205,0.0,3.0,78,-99.99,,,-99.99,0.000000,,2013-02-27 14:21:00,
2013-02-27 06:22:00,-4.0,-9.0,-100.00,SSW,195,2.0,4.0,79,-99.99,,,0.00,0.000000,,2013-02-27 15:22:00,
2013-02-27 07:22:00,-1.0,-6.0,-100.00,South,169,1.0,7.0,80,-99.99,,,0.00,0.000000,,2013-02-27 16:22:00,
2013-02-27 08:21:00,3.0,-1.0,-100.00,NE,48,0.0,3.0,81,-99.99,,,0.00,1.000000,,2013-02-27 17:21:00,
2013-02-27 09:22:00,7.0,2.0,-100.00,West,271,0.0,1.0,80,-99.99,,,-99.99,20.000000,,2013-02-27 18:22:00,
2013-02-27 09:32:00,7.0,2.0,-100.00,West,271,0.0,1.0,80,-99.99,,,-99.99,20.000000,,2013-02-27 18:32:00,
2013-02-27 09:42:00,7.0,2.0,-100.00,West,271,0.0,1.0,80,-99.99,,,-99.99,20.000000,,2013-02-27 18:42:00,
2013-02-27 09:51:00,7.0,2.0,-100.00,West,271,0.0,1.0,80,-99.99,,,-99.99,20.000000,,2013-02-27 18:51:00,
2013-02-27 10:21:00,12.0,5.0,-100.00,ENE,77,0.0,3.0,72,0.00,,,0.00,84.000000,,2013-02-27 19:21:00,
2013-02-27 10:32:00,12.0,5.0,-100.00,ENE,77,0.0,3.0,72,0.00,,,0.00,84.000000,,2013-02-27 19:32:00,
2013-02-27 10:42:00,12.0,5.0,-100.00,ENE,77,0.0,3.0,72,0.00,,,0.00,84.000000,,2013-02-27 19:42:00,
2013-02-27 10:51:00,12.0,5.0,-100.00,ENE,77,0.0,3.0,72,0.00,,,0.00,84.000000,,2013-02-27 19:51:00,
2013-02-27 11:21:00,22.0,6.0,-100.00,NW,318,1.0,4.0,50,0.00,,,0.00,217.000000,,2013-02-27 20:21:00,
2013-02-27 11:32:00,22.0,6.0,-100.00,NW,318,1.0,4.0,50,0.00,,,0.00,217.000000,,2013-02-27 20:32:00,
2013-02-27 11:42:00,22.0,6.0,-100.00,NW,318,1.0,4.0,50,0.00,,,0.00,217.000000,,2013-02-27 20:42:00,
2013-02-27 11:52:00,22.0,6.0,-100.00,NW,318,1.0,4.0,50,0.00,,,0.00,217.000000,,2013-02-27 20:52:00,
2013-02-27 12:21:00,22.0,6.0,-100.00,NNE,21,1.0,4.0,49,0.00,,,0.00,265.000000,,2013-02-27 21:21:00,
2013-02-27 12:31:00,22.0,6.0,-100.00,NNE,21,1.0,4.0,49,0.00,,,0.00,265.000000,,2013-02-27 21:31:00,
2013-02-27 12:42:00,22.0,6.0,-100.00,NNE,21,1.0,4.0,49,0.00,,,0.00,265.000000,,2013-02-27 21:42:00,
2013-02-27 12:51:00,22.0,6.0,-100.00,NNE,21,1.0,4.0,49,0.00,,,0.00,265.000000,,2013-02-27 21:51:00,
2013-02-27 13:21:00,31.0,8.0,-100.00,North,349,2.0,4.0,37,0.00,,,0.00,449.000000,,2013-02-27 22:21:00,
2013-02-27 13:31:00,31.0,8.0,-100.00,North,349,2.0,4.0,37,0.00,,,0.00,449.000000,,2013-02-27 22:31:00,
2013-02-27 13:41:00,31.0,8.0,-100.00,North,349,2.0,4.0,37,0.00,,,0.00,449.000000,,2013-02-27 22:41:00,
2013-02-27 13:51:00,31.0,8.0,-100.00,North,349,2.0,4.0,37,0.00,,,0.00,449.000000,,2013-02-27 22:51:00,
2013-02-27 14:21:00,36.0,8.0,-100.00,NNW,342,1.0,4.0,31,0.00,,,0.00,422.000000,,2013-02-27 23:21:00,
2013-02-27 14:31:00,36.0,8.0,-100.00,NNW,342,1.0,4.0,31,0.00,,,0.00,422.000000,,2013-02-27 23:31:00,
2013-02-27 14:42:00,36.0,8.0,-100.00,NNW,342,1.0,4.0,31,0.00,,,0.00,422.000000,,2013-02-27 23:42:00,
2013-02-27 14:52:00,36.0,8.0,-100.00,NNW,342,1.0,4.0,31,0.00,,,0.00,422.000000,,2013-02-27 23:52:00,
2013-02-27 15:21:00,36.0,8.0,-100.00,North,358,2.0,4.0,30,0.00,,,0.00,327.000000,,2013-02-28 00:21:00,
2013-02-27 15:32:00,36.0,8.0,-100.00,North,358,2.0,4.0,30,0.00,,,0.00,327.000000,,2013-02-28 00:32:00,
2013-02-27 15:42:00,36.0,8.0,-100.00,North,358,2.0,4.0,30,0.00,,,0.00,327.000000,,2013-02-28 00:42:00,
2013-02-27 15:51:00,36.0,8.0,-100.00,North,358,2.0,4.0,30,0.00,,,0.00,327.000000,,2013-02-28 00:51:00,
2013-02-27 16:21:00,34.0,9.0,-100.00,North,353,2.0,4.0,34,0.00,,,0.00,238.000000,,2013-02-28 01:21:00,
2013-02-27 16:31:00,34.0,9.0,-100.00,North,353,2.0,4.0,34,0.00,,,0.00,238.000000,,2013-02-28 01:31:00,
2013-02-27 16:41:00,34.0,9.0,-100.00,North,353,2.0,4.0,34,0.00,,,0.00,238.000000,,2013-02-28 01:41:00,
2013-02-27 16:51:00,34.0,9.0,-100.00,North,353,2.0,4.0,34,0.00,,,0.00,238.000000,,2013-02-28 01:51:00,
2013-02-27 17:22:00,29.0,9.0,-100.00,NNW,343,1.0,4.0,42,0.00,,,-99.99,112.000000,,2013-02-28 02:22:00,
2013-02-27 17:31:00,29.0,9.0,-100.00,NNW,343,1.0,4.0,42,0.00,,,-99.99,112.000000,,2013-02-28 02:31:00,
2013-02-27 17:41:00,29.0,9.0,-100.00,NNW,343,1.0,4.0,42,0.00,,,-99.99,112.000000,,2013-02-28 02:41:00,
2013-02-27 17:51:00,29.0,9.0,-100.00,NNW,343,1.0,4.0,42,0.00,,,-99.99,112.000000,,2013-02-28 02:51:00,
2013-02-27 18:21:00,24.0,7.0,-100.00,West,267,2.0,4.0,47,0.00,,,0.00,19.000000,,2013-02-28 03:21:00,
2013-02-27 18:31:00,24.0,7.0,-100.00,West,267,2.0,4.0,47,0.00,,,0.00,19.000000,,2013-02-28 03:31:00,
2013-02-27 18:41:00,24.0,7.0,-100.00,West,267,2.0,4.0,47,0.00,,,0.00,19.000000,,2013-02-28 03:41:00,
2013-02-27 18:51:00,24.0,7.0,-100.00,West,267,2.0,4.0,47,0.00,,,0.00,19.000000,,2013-02-28 03:51:00,
2013-02-27 19:21:00,19.0,11.0,-100.00,NNW,334,0.0,1.0,69,0.00,,,0.00,0.000000,,2013-02-28 04:21:00,
2013-02-27 19:31:00,19.0,11.0,-100.00,NNW,334,0.0,1.0,69,0.00,,,0.00,0.000000,,2013-02-28 04:31:00,
2013-02-27 19:41:00,19.0,11.0,-100.00,NNW,334,0.0,1.0,69,0.00,,,0.00,0.000000,,2013-02-28 04:41:00,
2013-02-27 19:51:00,19.0,11.0,-100.00,NNW,334,0.0,1.0,69,0.00,,,0.00,0.000000,,2013-02-28 04:51:00,
2013-02-27 20:22:00,17.0,10.0,-100.00,NW,312,0.0,1.0,73,0.00,,,0.00,0.000000,,2013-02-28 05:22:00,
2013-02-27 20:31:00,17.0,10.0,-100.00,NW,312,0.0,1.0,73,0.00,,,0.00,0.000000,,2013-02-28 05:31:00,
2013-02-27 20:42:00,17.0,10.0,-100.00,NW,312,0.0,1.0,73,0.00,,,0.00,0.000000,,2013-02-28 05:42:00,
2013-02-27 20:51:00,17.0,10.0,-100.00,NW,312,0.0,1.0,73,0.00,,,0.00,0.000000,,2013-02-28 05:51:00,
2013-02-27 21:22:00,16.0,10.0,-100.00,South,183,0.0,0.0,76,0.00,,,-99.99,0.000000,,2013-02-28 06:22:00,
2013-02-27 21:32:00,16.0,10.0,-100.00,South,183,0.0,0.0,76,0.00,,,-99.99,0.000000,,2013-02-28 06:32:00,
2013-02-27 21:41:00,16.0,10.0,-100.00,South,183,0.0,0.0,76,0.00,,,-99.99,0.000000,,2013-02-28 06:41:00,
2013-02-27 21:51:00,16.0,10.0,-100.00,South,183,0.0,0.0,76,0.00,,,-99.99,0.000000,,2013-02-28 06:51:00,
2013-02-27 22:21:00,14.0,8.0,-100.00,SE,135,0.0,1.0,78,0.00,,,0.00,0.000000,,2013-02-28 07:21:00,
2013-02-27 22:31:00,14.0,8.0,-100.00,SE,135,0.0,1.0,78,0.00,,,0.00,0.000000,,2013-02-28 07:31:00,
2013-02-27 22:41:00,14.0,8.0,-100.00,SE,135,0.0,1.0,78,0.00,,,0.00,0.000000,,2013-02-28 07:41:00,
2013-02-27 22:51:00,14.0,8.0,-100.00,SE,135,0.0,1.0,78,0.00,,,0.00,0.000000,,2013-02-28 07:51:00,
2013-02-27 23:22:00,12.0,7.0,-100.00,NE,43,0.0,2.0,79,0.00,,,0.00,0.000000,,2013-02-28 08:22:00,
2013-02-27 23:32:00,12.0,7.0,-100.00,NE,43,0.0,2.0,79,0.00,,,0.00,0.000000,,2013-02-28 08:32:00,
2013-02-27 23:42:00,12.0,7.0,-100.00,NE,43,0.0,2.0,79,0.00,,,0.00,0.000000,,2013-02-28 08:42:00,
2013-02-27 23:52:00,12.0,7.0,-100.00,NE,43,0.0,2.0,79,0.00,,,0.00,0.000000,,2013-02-28 08:52:00,